Aviation Digital Data Service (ADDS)

Output produced by METARs form (0142 UTC 23 November 2017)
found at http://www.aviationweather.gov/adds/metars/
 
LJLJ 230130Z 29009KT 8000 FEW040 01/01 Q1018 NOSIG
TAF LJLJ 222300Z 2300/2324 28005KT 9999 SCT035 
     TEMPO 2300/2324 BKN035
       
LJMB 230130Z AUTO 00000KT 9999 NCD 01/M00 Q1015
TAF LJMB 222300Z 2300/2324 20005KT CAVOK 
     BECMG 2305/2308 20010KT 
     BECMG 2308/2311 21015KT 
     BECMG 2316/2318 20005KT
       
LJPZ 230130Z AUTO 12001KT 9999 FEW041/// OVC060/// 10/08 Q1020
TAF LJPZ 222300Z 2300/2309 12005KT 9999 BKN045 
     TEMPO 2300/2309 5000 BR BKN025